This is the latest recevied weather packets stored in our database for station/object I2HLY-4. If no packets are shown the sender has not sent any weather packets the latest 10 day(s).
| Time | Temp. | Humidity | Pressure | Rain* | Wind** | Luminosity | Snow |
|---|---|---|---|---|---|---|---|
| 1777798041 | 15.56° C | 50% | 1021.3 hPa | 0 mm | - | - | - |
| 1777797138 | 15.56° C | 50% | 1021.2 hPa | 0 mm | - | - | - |
| 1777796242 | 15° C | 53% | 1021.4 hPa | 0 mm | - | - | - |
| 1777795343 | 14.44° C | 57% | 1021.3 hPa | 0 mm | - | - | - |
| 1777794447 | 13.89° C | 58% | 1021.3 hPa | 0 mm | - | - | - |
| 1777793546 | 14.44° C | 56% | 1021.3 hPa | 0 mm | - | - | - |
| 1777792647 | 14.44° C | 56% | 1021.3 hPa | 0 mm | - | - | - |
| 1777791746 | 13.33° C | 60% | 1021.4 hPa | 0 mm | - | - | - |
| 1777790847 | 12.78° C | 64% | 1021.5 hPa | 0 mm | - | - | - |
| 1777789933 | 11.67° C | 67% | 1021.4 hPa | 0 mm | - | - | - |
| 1777789033 | 11.11° C | 67% | 1021.5 hPa | 0 mm | - | - | - |
| 1777788132 | 10° C | 67% | 1021.3 hPa | 0 mm | - | - | - |
| 1777787236 | 9.44° C | 68% | 1021.2 hPa | 0 mm | - | - | - |
| 1777786337 | 8.89° C | 69% | 1021.2 hPa | 0 mm | - | - | - |
| 1777785441 | 8.89° C | 68% | 1021.2 hPa | 0 mm | - | - | - |
| 1777784542 | 8.89° C | 68% | 1021.1 hPa | 0 mm | - | - | - |
| 1777783643 | 8.89° C | 67% | 1021.3 hPa | 0 mm | - | - | - |
| 1777782747 | 8.33° C | 66% | 1021.1 hPa | 0 mm | - | - | - |
| 1777781848 | 8.89° C | 65% | 1021.3 hPa | 0 mm | - | - | - |
| 1777780934 | 8.89° C | 63% | 1021.1 hPa | 0 mm | - | - | - |
| 1777780035 | 8.33° C | 66% | 1021.2 hPa | 0 mm | - | - | - |
| 1777779136 | 8.89° C | 66% | 1021.2 hPa | 0 mm | - | - | - |
| 1777778240 | 8.33° C | 68% | 1021.2 hPa | 0 mm | - | - | - |
| 1777777340 | 8.33° C | 71% | 1021.4 hPa | 0 mm | - | - | - |
| 1777776441 | 8.89° C | 70% | 1021.5 hPa | 0 mm | - | - | - |
* Rain latest hour (hover to see other rain measurements)
** Current wind speed in m/s (hover to see current wind gust speed)